• Join FlightAware (Why Join?)
  • Login
  • US Flag 
05:19PM EST


 

Airport Tracker/Info


-or-


 

Live Flight TrackerFlight Track Log ✈ DAL3688 ✈ 08-Apr-2013 ✈ KMDT - KDTW

Flight Track Log - Related Links

Times and Time Zones

All times are in EDT time to prevent confusion due to time zone crossing. See the DAL3688 flight status page for this flight to view local times or setup timezone preferences in your user account.

Time Position Orientation Groundspeed Altitude Reporting Facility
EDT Latitude Longitude Course Direction KTS MPH feet Rate Location/Type
12:46PM 40.1067 -76.7717 247° West 217 250 5,100  Level New York Center
12:47PM 40.0989 -76.8469 262° West 224 258 7,700 2,640 Climbing New York Center
12:48PM 40.0872 -76.9492 262° West 259 298 10,400 1,980 Climbing New York Center
12:49PM 40.0758 -77.0458 261° West 290 334 11,800 1,440 Climbing New York Center
12:50PM 40.1717 -77.3814 241° Southwest  Level FlightAware Approximate
12:50PM 40.0753 -77.1733 270° West 315 362 13,400  Level New York Center
12:51PM 40.1314 -77.4894 247° West  Level FlightAware Approximate
12:51PM 40.0900 -77.2833 280° West 335 386 14,800  Level New York Center
12:52PM 40.0864 -77.4239 268° West 348 400 16,400 1,440 Climbing New York Center
12:53PM 40.0817 -77.5431 267° West 356 410 17,800 1,380 Climbing New York Center
12:53PM 40.0814 -77.6469 270° West 361 415 18,700 1,440 Climbing Cleveland Center
12:54PM 40.0764 -77.7803 267° West 386 444 20,200 1,380 Climbing Cleveland Center
12:55PM 40.0711 -77.9081 267° West 379 436 21,500 1,200 Climbing Cleveland Center
12:56PM 40.0636 -78.0358 266° West 364 419 22,600 720 Climbing Cleveland Center
12:57PM 40.0583 -78.1744 267° West 370 426 23,000 180 Climbing Cleveland Center
12:58PM 40.0528 -78.3128 267° West 382 440 23,000  Level Cleveland Center
12:59PM 40.0475 -78.4594 267° West 394 453 23,000 660 Level Cleveland Center
01:00PM 40.0417 -78.6008 267° West 399 459 24,400 1,500 Climbing Cleveland Center
01:01PM 40.0647 -78.7331 283° West 381 438 26,000 780 Climbing Cleveland Center
01:02PM 40.1042 -78.8594 292° West 381 438 26,000  Level Cleveland Center
01:03PM 40.1456 -78.9889 293° West 381 438 26,000  Level Cleveland Center
01:04PM 40.1850 -79.1183 292° West 386 444 26,000  Level Cleveland Center
01:05PM 40.2242 -79.2481 292° West 386 444 26,000  Level Cleveland Center
01:06PM 40.2692 -79.3750 295° West 391 450 26,000  Level Cleveland Center
01:07PM 40.3081 -79.5050 291° West 391 450 26,000  Level Cleveland Center
01:08PM 40.3467 -79.6350 291° West 391 450 26,000  Level Cleveland Center
01:09PM 40.3853 -79.7600 292° West 385 443 26,000  Level Cleveland Center
01:10PM 40.4236 -79.8878 292° West 385 443 26,000  Level Cleveland Center
01:11PM 40.4597 -80.0156 290° West 385 443 26,000  Level Cleveland Center
01:12PM 40.4978 -80.1408 292° West 385 443 26,000  Level Cleveland Center
01:13PM 40.5336 -80.2689 290° West 380 437 26,000  Level Cleveland Center
01:14PM 40.5694 -80.3781 293° West 370 426 26,000  Level Cleveland Center
01:15PM 40.6069 -80.5064 291° West 370 426 26,000  Level Cleveland Center
01:16PM 40.6467 -80.6489 290° West 375 432 26,000  Level Cleveland Center
01:17PM 40.6842 -80.7556 295° West 370 426 26,000  Level Cleveland Center
01:18PM 40.7422 -80.8736 303° West 375 432 26,000  Level Cleveland Center
01:19PM 40.8003 -80.9917 303° West 381 438 26,000  Level Cleveland Center
01:20PM 40.8622 -81.1267 301° West 386 444 26,000  Level Cleveland Center
01:21PM 40.9178 -81.2425 302° West 381 438 26,000  Level Cleveland Center
01:22PM 40.9756 -81.3586 303° West 381 438 26,000 -300 Level Cleveland Center
01:23PM 41.0289 -81.4722 302° West 381 438 25,500 -720 Descending Cleveland Center
01:24PM 41.0800 -81.5803 302° West 381 438 24,600 -780 Descending Cleveland Center
01:25PM 41.1375 -81.6886 305° West 376 433 24,000 -300 Descending Cleveland Center
01:26PM 41.1947 -81.8028 304° West 370 426 24,000  Level Cleveland Center
01:27PM 41.2433 -81.9169 300° West 370 426 24,000 -360 Level Cleveland Center
01:28PM 41.3003 -82.0314 304° West 370 426 23,300 -900 Descending Cleveland Center
01:29PM 41.3569 -82.1600 300° West 370 426 22,200 -1,080 Descending Cleveland Center
01:30PM 41.4222 -82.2694 309° West 370 426 21,200 -1,080 Descending Cleveland Center
01:31PM 41.4853 -82.3764 308° West 370 426 20,100 -1,680 Descending Cleveland Center
01:32PM 41.5481 -82.4781 310° West 365 420 17,900 -2,280 Descending Cleveland Center
01:33PM 41.6047 -82.5797 307° West 358 412 15,600 -2,340 Descending Cleveland Center
01:34PM 41.6372 -82.6281 312° West 346 398 14,400 -2,400 Descending Cleveland Center
01:34PM 41.6656 -82.6789 307° West 353 406 13,200 -2,160 Descending Cleveland Center
01:35PM 41.7039 -82.7442 308° West 340 391 12,000 -1,200 Descending Cleveland Center
01:35PM 41.7242 -82.7756 311° West 348 400 12,000  Level Cleveland Center
01:36PM 41.7711 -82.8328 318° Northwest 326 375 12,000  Level Cleveland Center
01:36PM 41.7894 -82.8583 314° West 336 387 12,000  Level Cleveland Center
01:37PM 41.8361 -82.9158 317° Northwest 322 371 12,000  Level Cleveland Center
01:37PM 41.8567 -82.9361 324° Northwest 325 374 12,000  Level Cleveland Center
01:38PM 41.9175 -83.0108 318° Northwest 316 364 12,000  Level Cleveland Center
01:39PM 41.9867 -83.0944 318° Northwest 313 360 12,000 -60 Level Cleveland Center
01:40PM 42.0497 -83.1697 318° Northwest 313 360 11,900 -540 Descending Cleveland Center
01:41PM 42.1003 -83.2306 318° Northwest 290 334 11,000 -600 Descending Cleveland Center
01:42PM 42.1728 -83.2506 348° North 247 284 10,800 -900 Descending Cleveland Center
01:44PM 42.2617 -83.1953 25° Northeast 290 334 9,100 -1,440 Descending Cleveland Center
01:44PM 42.3083 -83.1578 31° Northeast 287 330 8,200 -1,200 Descending Cleveland Center
01:45PM 42.3867 -83.1047 27° Northeast 293 337 6,900 -1,440 Descending Cleveland Center
01:47PM 42.4122 -83.1789 295° West 204 235 5,000 -1,380 Descending Cleveland Center
01:48PM 42.3736 -83.2222 220° Southwest 184 212 4,000 -900 Descending Cleveland Center
01:49PM 42.3269 -83.2569 209° Southwest 168 193 3,100 -840 Descending Cleveland Center
01:50PM 42.2908 -83.2806 206° Southwest 163 188 2,400 -840 Descending Cleveland Center
01:51PM 42.2592 -83.3075 212° Southwest 124 143 1,600 -780 Descending Cleveland Center
01:52PM 42.2253 -83.3311 207° Southwest 145 167 900 -720 Descending Cleveland Center